Time;durP1;ratioP1;P1;durP2;ratioP2;P2;SDS_P1;SDS_P2;PMS_P1;PMS_P2;Temp;Humidity;BMP_temperature;BMP_pressure;BME280_temperature;BME280_humidity;BME280_pressure;Samples;Min_cycle;Max_cycle;Signal;HPM_P1;HPM_P2
2021/07/22 00:00:01;;;;;;;22.23;12.23;;;;;;;16.63;79.08;102481.38;6122109;23;20006;-78
2021/07/22 00:02:27;;;;;;;19.42;12.23;;;;;;;16.63;79.63;102484.03;6123992;23;20333;-78
2021/07/22 00:04:52;;;;;;;27.20;12.35;;;;;;;16.58;80.03;102483.97;6121437;23;20006;-79
2021/07/22 00:07:18;;;;;;;25.15;13.35;;;;;;;16.53;80.59;102480.34;6122338;23;20088;-80
2021/07/22 00:09:44;;;;;;;24.67;14.20;;;;;;;16.50;80.80;102481.16;6123373;23;20002;-75
2021/07/22 00:12:19;;;;;;;24.90;13.75;;;;;;;16.47;81.25;102475.81;6126552;23;20037;-79
2021/07/22 00:14:44;;;;;;;30.02;13.65;;;;;;;16.44;81.26;102473.09;6098588;23;20093;-79
2021/07/22 00:17:17;;;;;;;26.80;14.32;;;;;;;16.41;81.44;102475.69;6123984;23;20034;-78
2021/07/22 00:19:42;;;;;;;28.70;14.60;;;;;;;16.40;81.81;102468.59;6120792;23;20446;-79
2021/07/22 00:22:27;;;;;;;25.27;13.98;;;;;;;16.41;81.60;102478.34;6122832;23;20496;-81
2021/07/22 00:24:53;;;;;;;28.20;13.65;;;;;;;16.39;82.01;102469.47;6123340;23;20014;-80
2021/07/22 00:27:38;;;;;;;26.27;14.82;;;;;;;16.37;81.94;102476.50;6121635;23;20481;-79
2021/07/22 00:30:04;;;;;;;26.38;15.07;;;;;;;16.33;82.17;102472.00;6120907;23;20010;-78
2021/07/22 00:32:30;;;;;;;23.60;14.23;;;;;;;16.31;82.54;102473.75;6121515;23;20370;-80
2021/07/22 00:34:55;;;;;;;25.33;14.20;;;;;;;16.30;82.58;102470.16;6121473;23;20017;-81
2021/07/22 00:37:20;;;;;;;26.45;15.70;;;;;;;16.28;82.85;102471.03;6121315;23;20005;-79
2021/07/22 00:39:46;;;;;;;28.05;14.60;;;;;;;16.24;82.89;102467.41;6123720;23;20053;-78
2021/07/22 00:42:12;;;;;;;30.48;14.80;;;;;;;16.22;82.79;102463.81;6122666;23;19998;-80
2021/07/22 00:44:37;;;;;;;26.30;14.40;;;;;;;16.18;83.41;102460.22;6123444;23;20572;-75
2021/07/22 00:47:03;;;;;;;28.48;15.43;;;;;;;16.15;83.33;102459.25;6126999;23;20048;-78
2021/07/22 00:49:28;;;;;;;25.50;14.82;;;;;;;16.13;83.68;102456.59;6124355;23;20052;-79
2021/07/22 00:51:54;;;;;;;26.35;16.13;;;;;;;16.10;83.99;102463.59;6123770;23;20123;-81
2021/07/22 00:54:21;;;;;;;24.00;15.43;;;;;;;16.09;83.87;102460.03;6123528;23;20361;-78
2021/07/22 00:56:47;;;;;;;27.63;15.00;;;;;;;16.07;83.91;102456.44;6121135;23;20065;-80
2021/07/22 00:59:12;;;;;;;26.48;14.80;;;;;;;16.08;84.09;102463.56;6122463;23;20010;-80
2021/07/22 01:01:38;;;;;;;30.13;16.80;;;;;;;16.07;84.33;102463.53;6123589;23;20002;-79
2021/07/22 01:04:03;;;;;;;27.67;15.07;;;;;;;16.04;84.20;102459.06;6123285;23;20005;-79
2021/07/22 01:06:29;;;;;;;28.55;16.38;;;;;;;16.03;83.87;102465.22;6121158;23;20013;-78
2021/07/22 01:08:54;;;;;;;27.08;14.80;;;;;;;16.02;84.40;102466.09;6123967;23;20013;-80
2021/07/22 01:11:20;;;;;;;27.50;16.25;;;;;;;16.01;84.30;102459.88;6123303;23;20010;-78
2021/07/22 01:13:45;;;;;;;30.02;16.63;;;;;;;16.00;84.20;102463.38;6120921;23;20485;-79
2021/07/22 01:16:11;;;;;;;31.75;17.10;;;;;;;15.99;84.34;102460.72;6123547;23;20009;-78
2021/07/22 01:18:45;;;;;;;28.13;15.00;;;;;;;15.98;83.87;102459.81;6122024;23;20006;-79
2021/07/22 01:21:11;;;;;;;29.33;16.67;;;;;;;15.97;84.21;102460.69;6124357;23;20050;-76
2021/07/22 01:23:36;;;;;;;27.85;16.55;;;;;;;15.98;84.35;102459.81;6121631;23;20006;-78
2021/07/22 01:26:02;;;;;;;28.88;16.52;;;;;;;15.98;84.42;102458.94;6120800;23;20395;-80
2021/07/22 01:28:28;;;;;;;33.22;17.63;;;;;;;15.95;84.56;102462.44;6123900;23;20490;-80
2021/07/22 01:30:53;;;;;;;30.77;17.13;;;;;;;15.94;84.80;102457.06;6127495;23;20073;-78
2021/07/22 01:33:18;;;;;;;30.90;17.70;;;;;;;15.91;84.73;102457.00;6121007;23;20426;-78
2021/07/22 01:35:44;;;;;;;30.45;17.10;;;;;;;15.93;84.47;102456.19;6123312;23;20420;-81
2021/07/22 01:38:10;;;;;;;29.17;16.70;;;;;;;15.90;84.80;102455.22;6123700;23;20069;-78
2021/07/22 01:40:35;;;;;;;31.65;17.70;;;;;;;15.86;85.08;102456.94;6122743;23;20061;-79
2021/07/22 01:43:05;;;;;;;32.17;17.98;;;;;;;15.81;85.11;102456.81;6124645;23;20077;-80
2021/07/22 01:45:32;;;;;;;32.13;18.52;;;;;;;15.79;85.59;102450.56;6124928;23;20081;-77
2021/07/22 01:48:06;;;;;;;38.90;20.08;;;;;;;15.80;85.78;102455.03;6121853;23;20017;-79
2021/07/22 01:50:31;;;;;;;38.22;19.23;;;;;;;15.79;85.96;102458.53;6122794;23;20014;-80
2021/07/22 01:52:56;;;;;;;36.17;19.85;;;;;;;15.76;86.10;102458.47;6127160;23;20026;-78
2021/07/22 01:55:22;;;;;;;37.65;18.80;;;;;;;15.74;86.09;102464.59;6128101;23;20369;-77
2021/07/22 01:57:47;;;;;;;38.58;19.88;;;;;;;15.71;86.61;102467.16;6126769;23;20010;-78
2021/07/22 02:00:13;;;;;;;36.35;21.02;;;;;;;15.67;86.57;102458.25;6122027;23;20057;-79
2021/07/22 02:02:39;;;;;;;41.17;21.73;;;;;;;15.63;86.77;102462.59;6122401;23;20380;-79
2021/07/22 02:05:04;;;;;;;44.25;22.80;;;;;;;15.61;87.19;102452.81;6126882;23;20010;-79
2021/07/22 02:07:30;;;;;;;39.33;22.13;;;;;;;15.58;86.91;102452.75;6123865;23;20005;-78
2021/07/22 02:09:55;;;;;;;40.28;22.27;;;;;;;15.55;87.04;102450.94;6122463;23;20001;-79
2021/07/22 02:12:21;;;;;;;40.17;22.67;;;;;;;15.52;87.27;102454.41;6121318;23;20010;-80
2021/07/22 02:14:50;;;;;;;38.42;21.23;;;;;;;15.48;87.09;102451.66;6123268;23;20069;-81
2021/07/22 02:17:19;;;;;;;42.28;22.00;;;;;;;15.45;87.14;102451.56;6122821;23;20342;-76
2021/07/22 02:19:45;;;;;;;43.17;21.75;;;;;;;15.41;87.41;102449.72;6124175;23;20014;-76
2021/07/22 02:22:34;;;;;;;39.75;20.95;;;;;;;15.37;87.37;102458.47;6123947;23;20512;-78
2021/07/22 02:25:00;;;;;;;41.97;21.33;;;;;;;15.35;87.54;102455.78;6122164;23;20021;-77
2021/07/22 02:27:25;;;;;;;46.78;24.52;;;;;;;15.35;88.28;102463.75;6122870;23;20018;-80
2021/07/22 02:29:51;;;;;;;45.65;23.77;;;;;;;15.36;88.31;102454.06;6122342;23;20002;-78
2021/07/22 02:32:16;;;;;;;46.35;24.00;;;;;;;15.36;88.28;102459.34;6125042;23;20045;-78
2021/07/22 02:35:01;;;;;;;44.03;23.20;;;;;;;15.33;88.25;102457.53;6121443;23;20063;-79
2021/07/22 02:37:27;;;;;;;39.65;21.45;;;;;;;15.29;88.31;102450.38;6124604;23;20132;-81
2021/07/22 02:39:52;;;;;;;41.42;22.88;;;;;;;15.26;88.13;102456.47;6129136;23;20347;-80
2021/07/22 02:42:17;;;;;;;49.10;25.45;;;;;;;15.26;87.92;102447.63;6125196;23;20013;-77
2021/07/22 02:44:43;;;;;;;44.22;23.48;;;;;;;15.25;88.39;102454.69;6121425;23;20009;-79
2021/07/22 02:47:13;;;;;;;50.85;25.63;;;;;;;15.25;88.67;102459.09;6122191;23;20637;-78
2021/07/22 02:49:38;;;;;;;54.15;27.65;;;;;;;15.20;88.91;102458.09;6121151;23;20100;-79
2021/07/22 02:52:06;;;;;;;47.40;25.75;;;;;;;15.15;88.61;102460.63;6121057;23;20025;-77
2021/07/22 02:54:31;;;;;;;47.65;25.65;;;;;;;15.10;88.56;102465.84;6098965;23;20090;-80
2021/07/22 02:56:57;;;;;;;54.90;26.38;;;;;;;15.07;88.42;102464.84;6123478;23;20030;-80
2021/07/22 02:59:22;;;;;;;50.78;26.95;;;;;;;15.02;88.73;102472.69;6122149;23;20108;-77
2021/07/22 03:02:08;;;;;;;63.10;27.67;;;;;;;15.01;88.76;102465.59;6124319;23;20025;-78
2021/07/22 03:04:33;;;;;;;55.67;28.20;;;;;;;15.01;88.77;102474.44;6123487;23;20425;-78
2021/07/22 03:06:58;;;;;;;60.20;27.77;;;;;;;15.02;88.84;102467.41;6121973;23;20012;-78
2021/07/22 03:09:24;;;;;;;61.70;28.42;;;;;;;15.03;88.90;102465.63;6124163;23;20088;-77
2021/07/22 03:12:10;;;;;;;57.55;28.58;;;;;;;14.99;89.26;102467.34;6123069;23;20044;-80
2021/07/22 03:14:35;;;;;;;63.28;30.27;;;;;;;14.96;89.26;102467.25;6128579;23;20006;-78
2021/07/22 03:17:00;;;;;;;62.70;29.67;;;;;;;14.94;89.54;102461.91;6122216;23;20006;-78
2021/07/22 03:19:27;;;;;;;59.70;28.75;;;;;;;14.92;89.64;102458.34;6121836;23;20061;-79
2021/07/22 03:21:52;;;;;;;55.10;26.75;;;;;;;14.90;89.31;102459.16;6122107;23;20460;-78
2021/07/22 03:24:17;;;;;;;53.65;26.40;;;;;;;14.90;88.98;102456.50;6124797;23;20005;-78
2021/07/22 03:26:44;;;;;;;57.17;27.40;;;;;;;14.88;89.22;102460.84;6123984;23;20033;-78
2021/07/22 03:29:09;;;;;;;45.92;24.35;;;;;;;14.87;88.62;102456.41;6126369;23;20010;-78
2021/07/22 03:31:49;;;;;;;50.85;25.83;;;;;;;14.83;89.06;102450.16;6122378;23;20002;-79
2021/07/22 03:34:17;;;;;;;39.60;20.23;;;;;;;14.81;88.88;102462.44;6122691;23;20080;-81
2021/07/22 03:37:02;;;;;;;40.10;21.70;;;;;;;14.77;88.79;102456.19;6121564;23;20073;-80
2021/07/22 03:39:30;;;;;;;40.15;21.60;;;;;;;14.73;88.60;102464.00;6122719;23;20018;-77
2021/07/22 03:41:55;;;;;;;48.10;24.42;;;;;;;14.67;88.55;102451.50;6122036;23;20073;-79
2021/07/22 03:44:21;;;;;;;41.65;22.90;;;;;;;14.64;88.58;102459.41;6122038;23;20370;-78
2021/07/22 03:46:46;;;;;;;39.72;21.17;;;;;;;14.61;88.64;102460.19;6120072;23;20016;-77
2021/07/22 03:49:12;;;;;;;41.58;22.50;;;;;;;14.58;88.81;102459.19;6122559;23;20021;-78
2021/07/22 03:51:37;;;;;;;36.53;21.50;;;;;;;14.56;88.93;102455.63;6121778;23;20006;-81
2021/07/22 03:54:04;;;;;;;41.45;21.63;;;;;;;14.54;88.92;102457.31;6123989;23;20129;-77
2021/07/22 03:56:29;;;;;;;41.03;21.92;;;;;;;14.50;89.14;102451.94;6123420;23;20014;-79
2021/07/22 03:58:55;;;;;;;39.58;21.52;;;;;;;14.48;88.99;102456.28;6121940;23;20040;-78
2021/07/22 04:01:20;;;;;;;38.80;21.13;;;;;;;14.47;89.16;102459.81;6124869;23;20384;-81
2021/07/22 04:03:46;;;;;;;35.90;20.35;;;;;;;14.45;88.84;102458.88;6121844;23;20014;-79
2021/07/22 04:06:11;;;;;;;42.80;21.55;;;;;;;14.45;89.03;102461.50;6120970;23;20012;-79
2021/07/22 04:08:37;;;;;;;42.28;21.92;;;;;;;14.44;89.31;102456.19;6120829;23;20002;-80
2021/07/22 04:11:23;;;;;;;45.45;22.33;;;;;;;14.44;89.04;102457.06;6121326;23;20010;-81
2021/07/22 04:13:48;;;;;;;44.53;23.45;;;;;;;14.44;89.23;102451.78;6123435;23;20018;-79
2021/07/22 04:16:13;;;;;;;45.42;23.40;;;;;;;14.46;89.69;102459.75;6123169;23;20382;-78
2021/07/22 04:18:39;;;;;;;41.00;21.88;;;;;;;14.48;89.76;102461.59;6096006;23;20006;-80
2021/07/22 04:21:04;;;;;;;37.30;19.65;;;;;;;14.48;89.52;102450.13;6120849;23;20012;-76
2021/07/22 04:23:29;;;;;;;38.70;19.85;;;;;;;14.50;89.51;102462.53;6120999;23;20071;-77
2021/07/22 04:25:55;;;;;;;33.67;17.75;;;;;;;14.56;89.24;102466.22;6098520;23;20421;-78
2021/07/22 04:28:20;;;;;;;29.38;18.05;;;;;;;14.60;89.30;102458.38;6127109;23;20057;-77
2021/07/22 04:30:46;;;;;;;30.35;17.85;;;;;;;14.64;89.42;102459.41;6128081;23;20332;-79
2021/07/22 04:33:11;;;;;;;37.88;17.17;;;;;;;14.70;88.80;102458.66;6128682;23;20053;-79
2021/07/22 04:35:36;;;;;;;29.10;16.67;;;;;;;14.76;88.49;102459.69;6124464;23;20422;-79
2021/07/22 04:38:03;;;;;;;27.00;16.48;;;;;;;14.80;88.36;102461.56;6124210;23;20386;-76
2021/07/22 04:40:28;;;;;;;25.17;15.68;;;;;;;14.89;87.89;102467.97;6121265;23;20450;-79
2021/07/22 04:42:54;;;;;;;29.88;17.73;;;;;;;14.95;87.89;102466.34;6122275;23;20010;-80
2021/07/22 04:45:19;;;;;;;25.63;15.52;;;;;;;15.01;87.65;102463.84;6121183;23;20088;-77
2021/07/22 04:47:44;;;;;;;24.08;15.55;;;;;;;15.07;87.34;102468.41;6095337;23;20006;-78
2021/07/22 04:50:18;;;;;;;24.00;14.52;;;;;;;15.16;86.91;102467.72;6121510;23;20061;-78
2021/07/22 04:52:43;;;;;;;;;;;;;;;15.26;86.60;102466.19;6123473;23;20497;-79
2021/07/22 04:55:09;;;;;;;22.38;13.82;;;;;;;15.36;86.14;102473.50;6123113;23;19956;-79
2021/07/22 04:57:35;;;;;;;25.75;13.30;;;;;;;15.42;85.52;102463.00;6121388;23;20009;-81
2021/07/22 05:00:00;;;;;;;21.23;12.35;;;;;;;15.48;85.39;102467.59;6123799;23;20061;-79
2021/07/22 05:02:26;;;;;;;18.40;12.93;;;;;;;15.55;85.22;102469.50;6121895;23;20005;-77
2021/07/22 05:04:51;;;;;;;23.13;12.77;;;;;;;15.61;84.60;102472.31;6121877;23;20057;-79
2021/07/22 05:07:24;;;;;;;19.95;12.73;;;;;;;15.70;84.78;102482.22;6123389;23;20017;-76
2021/07/22 05:09:50;;;;;;;24.77;12.95;;;;;;;15.78;84.61;102467.34;6121504;23;20041;-76
2021/07/22 05:12:15;;;;;;;20.25;12.02;;;;;;;15.90;84.47;102476.44;6122642;23;20013;-79
2021/07/22 05:14:41;;;;;;;19.67;11.23;;;;;;;15.98;83.52;102469.56;6121137;23;20002;-80
2021/07/22 05:17:06;;;;;;;21.30;12.05;;;;;;;16.06;83.05;102467.97;6125762;23;20006;-77
2021/07/22 05:19:31;;;;;;;18.92;11.20;;;;;;;16.18;83.21;102461.97;6124625;23;20018;-78
2021/07/22 05:21:57;;;;;;;20.77;11.85;;;;;;;16.26;82.44;102464.78;6126241;23;20045;-79
2021/07/22 05:24:22;;;;;;;17.13;11.20;;;;;;;16.35;82.21;102471.16;6123721;23;20010;-79
2021/07/22 05:26:49;;;;;;;16.92;10.48;;;;;;;16.47;81.43;102467.84;6125378;23;20073;-77
2021/07/22 05:29:34;;;;;;;18.58;11.18;;;;;;;16.63;80.70;102470.75;6124838;23;20445;-76
2021/07/22 05:32:00;;;;;;;21.10;11.90;;;;;;;16.81;80.75;102470.19;6099340;23;20013;-79
2021/07/22 05:34:25;;;;;;;16.88;11.80;;;;;;;16.97;79.74;102460.72;6124833;23;20333;-79
2021/07/22 05:36:50;;;;;;;15.48;10.13;;;;;;;17.19;79.21;102461.97;6124907;23;20327;-81
2021/07/22 05:39:16;;;;;;;18.23;11.55;;;;;;;17.34;77.29;102459.53;6123513;23;20016;-78
2021/07/22 05:41:42;;;;;;;15.02;10.32;;;;;;;17.52;77.39;102465.97;6123151;23;20481;-80
2021/07/22 05:44:08;;;;;;;14.60;9.70;;;;;;;17.73;76.28;102460.06;6123251;23;20021;-78
2021/07/22 05:46:33;;;;;;;14.48;9.45;;;;;;;17.68;75.13;102456.44;6123047;23;20282;-79
2021/07/22 05:48:59;;;;;;;17.42;9.63;;;;;;;17.60;75.08;102453.66;6126596;23;20010;-79
2021/07/22 05:51:24;;;;;;;16.27;10.32;;;;;;;17.49;75.88;102455.31;6122690;23;20006;-80
2021/07/22 05:53:50;;;;;;;13.48;9.68;;;;;;;17.27;76.24;102460.31;6123103;23;20052;-78
2021/07/22 05:56:23;;;;;;;13.77;9.07;;;;;;;17.26;77.09;102473.59;6122618;23;20963;-79
2021/07/22 05:58:50;;;;;;;13.05;8.95;;;;;;;17.31;76.44;102463.94;6122343;23;20007;-79
2021/07/22 06:01:36;;;;;;;13.68;9.52;;;;;;;17.56;76.03;102466.94;6121025;23;20433;-79
2021/07/22 06:04:02;;;;;;;13.02;8.90;;;;;;;17.94;74.53;102469.22;6121811;23;20025;-79
2021/07/22 06:06:28;;;;;;;15.10;9.15;;;;;;;18.25;72.67;102457.13;6125348;23;20006;-76
2021/07/22 06:08:54;;;;;;;12.43;9.25;;;;;;;18.42;72.58;102462.66;6125733;23;20010;-80
2021/07/22 06:11:27;;;;;;;14.93;8.40;;;;;;;18.51;71.92;102456.50;6124738;23;20142;-77
2021/07/22 06:13:52;;;;;;;15.63;8.55;;;;;;;18.33;72.44;102455.44;6097668;23;20014;-78
2021/07/22 06:16:18;;;;;;;11.25;8.02;;;;;;;18.37;71.93;102454.59;6124159;23;20583;-79
2021/07/22 06:18:43;;;;;;;13.57;8.23;;;;;;;18.40;72.06;102461.72;6125627;23;20064;-79
2021/07/22 06:21:16;;;;;;;14.20;8.35;;;;;;;18.52;69.93;102459.16;6125133;23;20774;-79
2021/07/22 06:24:02;;;;;;;15.55;8.38;;;;;;;18.64;71.46;102463.72;6127633;23;20014;-77
2021/07/22 06:26:31;;;;;;;13.77;7.97;;;;;;;18.87;70.24;102461.25;6127568;23;20430;-79
2021/07/22 06:28:57;;;;;;;13.80;7.93;;;;;;;18.80;69.61;102447.84;6129550;23;20425;-78
2021/07/22 06:31:22;;;;;;;13.38;8.63;;;;;;;18.87;69.89;102463.03;6128816;23;20008;-79
2021/07/22 06:33:48;;;;;;;12.45;8.10;;;;;;;18.77;69.74;102453.16;6128922;23;20461;-77
2021/07/22 06:36:13;;;;;;;13.32;7.78;;;;;;;18.96;69.63;102460.44;6129434;23;20030;-78
2021/07/22 06:38:38;;;;;;;13.95;8.23;;;;;;;19.19;69.14;102457.06;6129083;23;20409;-77
2021/07/22 06:41:04;;;;;;;13.75;7.90;;;;;;;19.42;68.59;102459.88;6128401;23;20099;-78
2021/07/22 06:43:49;;;;;;;12.90;8.85;;;;;;;20.07;65.94;102452.16;6129022;23;20013;-76
2021/07/22 06:46:15;;;;;;;15.68;7.63;;;;;;;20.51;64.44;102461.16;6127275;23;20028;-77
2021/07/22 06:48:41;;;;;;;11.45;7.43;;;;;;;20.49;63.72;102458.47;6128130;23;20006;-77
2021/07/22 06:51:07;;;;;;;9.55;6.93;;;;;;;20.65;64.04;102450.47;6128504;23;20063;-79
2021/07/22 06:53:32;;;;;;;10.90;6.53;;;;;;;21.14;62.56;102453.13;6102287;23;20013;-77
2021/07/22 06:55:58;;;;;;;12.50;7.50;;;;;;;21.69;59.44;102452.13;6127917;23;20121;-77
2021/07/22 06:58:24;;;;;;;9.80;6.55;;;;;;;22.31;60.50;102453.56;6129379;23;20028;-78
2021/07/22 07:00:50;;;;;;;9.63;6.88;;;;;;;22.51;58.42;102448.97;6128042;23;20412;-78
2021/07/22 07:03:35;;;;;;;12.30;6.30;;;;;;;22.73;55.31;102443.44;6127581;23;20021;-78
2021/07/22 07:06:10;;;;;;;10.90;7.22;;;;;;;22.63;56.78;102449.81;6127930;23;20010;-77
2021/07/22 07:08:35;;;;;;;14.13;6.55;;;;;;;22.82;56.50;102447.84;6127007;23;20013;-78
2021/07/22 07:11:00;;;;;;;9.18;6.22;;;;;;;23.05;56.16;102450.31;6127331;23;20418;-78
2021/07/22 07:13:26;;;;;;;10.68;5.75;;;;;;;23.24;55.81;102453.72;6126874;23;19995;-77
2021/07/22 07:15:51;;;;;;;9.60;6.22;;;;;;;23.17;54.50;102446.63;6127068;23;20036;-78
2021/07/22 07:18:17;;;;;;;8.90;6.15;;;;;;;23.31;54.01;102450.06;6127516;23;20002;-78
2021/07/22 07:20:42;;;;;;;9.27;6.80;;;;;;;23.19;55.82;102451.06;6128084;23;20013;-78
2021/07/22 07:23:07;;;;;;;10.25;6.25;;;;;;;23.19;54.59;102448.41;6128082;23;20068;-79
2021/07/22 07:25:33;;;;;;;9.65;6.70;;;;;;;23.41;54.76;102456.22;6128083;23;20033;-76
2021/07/22 07:27:59;;;;;;;9.60;6.50;;;;;;;23.48;53.57;102447.19;6128196;23;20014;-77
2021/07/22 07:30:25;;;;;;;10.95;6.28;;;;;;;23.41;54.01;102458.91;6127089;23;20021;-79
2021/07/22 07:32:54;;;;;;;8.48;6.80;;;;;;;23.24;53.87;102451.94;6128017;23;19998;-79
2021/07/22 07:35:23;;;;;;;12.30;6.28;;;;;;;22.92;54.39;102452.22;6128660;23;20010;-77
2021/07/22 07:37:48;;;;;;;9.75;6.25;;;;;;;22.83;54.45;102450.53;6128188;23;20340;-79
2021/07/22 07:40:34;;;;;;;8.30;6.20;;;;;;;22.55;54.54;102445.38;6128416;23;20029;-79
2021/07/22 07:43:00;;;;;;;14.57;7.13;;;;;;;22.65;54.74;102451.53;6127324;23;20017;-78
2021/07/22 07:45:25;;;;;;;10.45;7.13;;;;;;;22.53;55.01;102457.94;6127678;23;20081;-76
2021/07/22 07:48:30;;;;;;;12.48;6.95;;;;;;;23.00;54.53;102457.53;6128117;23;20029;-78
2021/07/22 07:50:56;;;;;;;10.15;6.88;;;;;;;22.87;54.04;102451.38;6102060;23;20020;-81
2021/07/22 07:53:21;;;;;;;8.82;6.47;;;;;;;23.02;53.87;102450.31;6128410;23;20076;-77
2021/07/22 07:55:47;;;;;;;11.88;7.13;;;;;;;22.75;56.04;102457.75;6128141;23;20010;-77
2021/07/22 07:58:13;;;;;;;10.85;6.97;;;;;;;23.12;53.78;102457.41;6126402;23;20333;-78
2021/07/22 08:00:59;;;;;;;11.20;6.28;;;;;;;23.10;54.02;102453.84;6101276;23;20017;-79
2021/07/22 08:03:24;;;;;;;12.48;7.75;;;;;;;23.22;55.85;102464.50;6128027;23;20333;-77
2021/07/22 08:05:51;;;;;;;8.98;6.40;;;;;;;23.31;53.35;102457.25;6126755;23;20006;-78
2021/07/22 08:08:16;;;;;;;12.02;6.78;;;;;;;23.11;54.21;102462.78;6128071;23;20006;-79
2021/07/22 08:11:02;;;;;;;11.40;6.20;;;;;;;23.54;54.42;102455.16;6128123;23;20002;-78
2021/07/22 08:13:27;;;;;;;13.23;6.60;;;;;;;23.23;52.62;102454.63;6127185;23;20014;-77
2021/07/22 08:16:17;;;;;;;12.30;7.20;;;;;;;23.35;53.60;102456.31;6127731;23;20041;-78
2021/07/22 08:18:42;;;;;;;10.65;7.07;;;;;;;23.31;52.79;102457.25;6127909;23;20014;-77
2021/07/22 08:21:08;;;;;;;11.32;6.20;;;;;;;23.45;52.64;102455.28;6128016;23;20005;-78
2021/07/22 08:23:33;;;;;;;10.35;6.32;;;;;;;23.34;52.69;102451.81;6127118;23;20426;-77
2021/07/22 08:25:59;;;;;;;15.23;6.95;;;;;;;23.21;53.61;102456.44;6127741;23;20014;-77
2021/07/22 08:28:24;;;;;;;10.77;6.53;;;;;;;23.11;55.84;102466.34;6128071;23;20006;-79
2021/07/22 08:30:49;;;;;;;11.23;6.93;;;;;;;23.08;54.26;102466.38;6128229;23;20085;-78
2021/07/22 08:33:15;;;;;;;12.13;7.40;;;;;;;23.22;53.10;102456.44;6126959;23;20033;-78
2021/07/22 08:35:40;;;;;;;14.07;7.97;;;;;;;23.13;53.35;102459.22;6126466;23;20026;-79
2021/07/22 08:38:05;;;;;;;13.90;7.10;;;;;;;23.17;53.40;102455.59;6127126;23;20090;-81
2021/07/22 08:40:31;;;;;;;15.05;7.70;;;;;;;22.78;53.90;102449.66;6127184;23;20325;-79
2021/07/22 08:43:02;;;;;;;9.48;7.18;;;;;;;22.71;54.97;102456.00;6126856;23;20013;-78
2021/07/22 08:45:48;;;;;;;8.57;6.88;;;;;;;22.80;54.70;102455.00;6127703;23;20010;-80
2021/07/22 08:48:14;;;;;;;11.63;7.22;;;;;;;22.84;54.00;102455.00;6126443;23;20010;-79
2021/07/22 08:50:41;;;;;;;13.60;6.97;;;;;;;23.20;55.05;102450.19;6101841;23;20009;-78
2021/07/22 08:53:07;;;;;;;9.15;6.55;;;;;;;23.68;53.09;102440.69;6128710;23;20402;-80
2021/07/22 08:55:53;;;;;;;8.80;6.15;;;;;;;24.33;51.01;102440.66;6129134;23;20080;-79
2021/07/22 08:58:40;;;;;;;9.80;6.95;;;;;;;23.63;53.14;102439.84;6129448;23;20311;-78
2021/07/22 09:01:26;;;;;;;12.90;6.30;;;;;;;24.00;52.08;102434.03;6129509;23;20033;-79
2021/07/22 09:03:52;;;;;;;11.27;6.95;;;;;;;24.73;50.86;102429.28;6106996;23;20081;-78
2021/07/22 09:06:18;;;;;;;10.40;6.30;;;;;;;25.72;47.24;102415.69;6129207;23;20382;-80
2021/07/22 09:08:43;;;;;;;8.88;6.20;;;;;;;26.05;47.00;102415.91;6128711;23;20006;-80
2021/07/22 09:11:11;;;;;;;11.30;5.32;;;;;;;26.47;43.41;102410.38;6128550;23;20025;-80
2021/07/22 09:13:37;;;;;;;10.32;6.25;;;;;;;25.69;49.18;102437.34;6128637;23;20041;-76
2021/07/22 09:16:04;;;;;;;12.70;5.88;;;;;;;25.47;49.33;102432.41;6128509;23;20002;-82
2021/07/22 09:18:49;;;;;;;8.88;5.30;;;;;;;25.44;48.26;102432.47;6128495;23;20085;-79
2021/07/22 09:21:23;;;;;;;10.85;5.43;;;;;;;25.36;46.89;102429.06;6128458;23;20018;-79
2021/07/22 09:24:08;;;;;;;12.75;6.20;;;;;;;25.87;46.19;102436.94;6129455;23;20072;-78
2021/07/22 09:26:54;;;;;;;11.32;5.38;;;;;;;26.15;44.24;102420.13;6129639;23;20002;-77
2021/07/22 09:29:20;;;;;;;6.80;4.90;;;;;;;26.23;47.48;102439.72;6128597;23;20006;-78
2021/07/22 09:32:05;;;;;;;9.65;5.47;;;;;;;25.74;45.16;102432.75;6129134;23;20382;-80
2021/07/22 09:34:30;;;;;;;9.48;5.63;;;;;;;25.25;45.32;102437.31;6128018;23;20009;-80
2021/07/22 09:37:07;;;;;;;8.43;5.25;;;;;;;25.86;44.64;102435.16;6128859;23;20373;-81
2021/07/22 09:39:32;;;;;;;7.55;5.30;;;;;;;25.34;48.86;102447.03;6129193;23;20041;-78
2021/07/22 09:42:17;;;;;;;10.23;5.45;;;;;;;24.80;47.18;102440.84;6129637;23;19998;-80
2021/07/22 09:44:43;;;;;;;8.20;5.97;;;;;;;25.36;46.20;102435.31;6128495;23;20017;-80
2021/07/22 09:47:10;;;;;;;9.35;5.60;;;;;;;26.15;45.43;102430.94;6129959;23;20014;-79
2021/07/22 09:50:06;;;;;;;12.70;5.50;;;;;;;25.95;47.42;102443.97;6129024;23;20483;-78
2021/07/22 09:52:32;;;;;;;7.13;5.13;;;;;;;25.54;44.65;102431.38;6128997;23;20017;-77
2021/07/22 09:54:57;;;;;;;10.52;5.72;;;;;;;25.21;45.34;102438.28;6129177;23;20001;-79
2021/07/22 09:57:43;;;;;;;7.30;5.55;;;;;;;26.12;44.21;102431.00;6129885;23;20005;-79
2021/07/22 10:00:29;;;;;;;10.90;5.63;;;;;;;26.63;42.77;102424.38;6129630;23;20010;-78
2021/07/22 10:03:15;;;;;;;6.68;5.15;;;;;;;27.58;41.95;102420.88;6128461;23;20040;-78
2021/07/22 10:05:52;;;;;;;8.50;5.13;;;;;;;27.88;39.94;102412.75;6128712;23;20064;-78
2021/07/22 10:08:18;;;;;;;8.68;5.57;;;;;;;27.70;38.18;102392.59;6129440;23;20006;-79
2021/07/22 10:10:50;;;;;;;8.82;5.53;;;;;;;28.47;37.32;102393.75;6128703;23;20006;-80
2021/07/22 10:13:16;;;;;;;8.73;5.82;;;;;;;27.30;40.85;102417.19;6129191;23;20016;-80
2021/07/22 10:15:43;;;;;;;7.78;5.15;;;;;;;26.68;42.03;102416.16;6128883;23;20002;-80
2021/07/22 10:18:09;;;;;;;8.00;5.13;;;;;;;25.72;43.65;102426.47;6129649;23;20077;-79
2021/07/22 10:20:59;;;;;;;7.10;5.55;;;;;;;24.67;45.89;102447.34;6128867;23;20018;-79
2021/07/22 10:23:25;;;;;;;8.77;5.32;;;;;;;24.44;46.19;102437.81;6128770;23;20045;-78
2021/07/22 10:25:51;;;;;;;8.15;5.25;;;;;;;24.58;47.10;102446.56;6128107;23;20001;-79
2021/07/22 10:28:17;;;;;;;6.38;5.13;;;;;;;25.80;45.52;102437.09;6128077;23;20018;-80
2021/07/22 10:30:46;;;;;;;7.40;4.90;;;;;;;27.24;41.43;102412.88;6128804;23;20014;-78
2021/07/22 10:33:34;;;;;;;13.02;5.28;;;;;;;28.42;41.12;102402.06;6103327;23;20017;-80
2021/07/22 10:36:20;;;;;;;8.43;4.70;;;;;;;29.13;37.89;102395.97;6129500;23;20021;-80
2021/07/22 10:38:47;;;;;;;7.68;4.90;;;;;;;29.72;37.60;102405.50;6128822;23;20368;-79
2021/07/22 10:41:28;;;;;;;6.40;4.32;;;;;;;30.20;33.33;102387.31;6128313;23;20014;-77
2021/07/22 10:43:53;;;;;;;5.30;4.75;;;;;;;29.98;32.91;102371.03;6128645;23;20024;-78
2021/07/22 10:46:21;;;;;;;6.60;5.32;;;;;;;30.53;32.53;102371.41;6128616;23;20082;-80
2021/07/22 10:48:48;;;;;;;6.93;5.72;;;;;;;30.55;33.57;102385.84;6128920;23;20323;-78
2021/07/22 10:51:57;;;;;;;11.93;5.15;;;;;;;30.81;33.48;102381.09;6128344;23;20016;-78
2021/07/22 10:54:40;;;;;;;7.55;4.75;;;;;;;30.65;33.80;102380.88;6128575;23;20341;-78
2021/07/22 10:57:28;;;;;;;7.97;5.65;;;;;;;30.32;33.60;102383.19;6128752;23;20005;-77
2021/07/22 10:59:57;;;;;;;7.55;5.63;;;;;;;30.90;32.95;102383.41;6133302;23;20020;-77
2021/07/22 11:02:57;;;;;;;8.65;5.20;;;;;;;30.68;33.82;102378.00;6130320;23;20445;-79
2021/07/22 11:05:24;;;;;;;7.72;4.72;;;;;;;28.98;36.54;102386.59;6128414;23;20018;-78
2021/07/22 11:08:20;;;;;;;9.07;4.53;;;;;;;27.78;38.41;102397.75;6128973;23;20081;-78
2021/07/22 11:10:57;;;;;;;8.13;4.43;;;;;;;27.36;41.73;102408.91;6131551;23;20013;-77
2021/07/22 11:13:34;;;;;;;8.70;5.90;;;;;;;26.28;41.21;102398.28;6128182;23;20010;-77
2021/07/22 11:16:28;;;;;;;7.70;5.47;;;;;;;27.76;39.31;102400.50;6128493;23;20002;-78
2021/07/22 11:19:14;;;;;;;8.57;5.63;;;;;;;28.86;39.15;102393.34;6128896;23;20031;-79
2021/07/22 11:21:48;;;;;;;9.80;4.82;;;;;;;29.43;37.34;102385.81;6129673;23;20018;-79
2021/07/22 11:24:16;;;;;;;8.90;4.60;;;;;;;29.21;36.29;102377.59;6128204;23;20496;-79